sensor_id;sensor_type;location;lat;lon;timestamp;P1;durP1;ratioP1;P2;durP2;ratioP2
56122;SDS011;42426;46.104;19.656;2023-09-19T00:01:28;12.00;;;6.20;;
56122;SDS011;42426;46.104;19.656;2023-09-19T00:03:56;10.90;;;6.20;;
56122;SDS011;42426;46.104;19.656;2023-09-19T00:06:23;9.93;;;6.50;;
56122;SDS011;42426;46.104;19.656;2023-09-19T00:08:53;13.93;;;6.55;;
56122;SDS011;42426;46.104;19.656;2023-09-19T00:11:19;8.45;;;6.20;;
56122;SDS011;42426;46.104;19.656;2023-09-19T00:13:47;18.00;;;6.25;;
56122;SDS011;42426;46.104;19.656;2023-09-19T00:16:15;8.85;;;5.80;;
56122;SDS011;42426;46.104;19.656;2023-09-19T00:18:40;8.63;;;5.80;;
56122;SDS011;42426;46.104;19.656;2023-09-19T00:21:07;13.90;;;7.65;;
56122;SDS011;42426;46.104;19.656;2023-09-19T00:23:35;7.45;;;6.05;;
56122;SDS011;42426;46.104;19.656;2023-09-19T00:26:00;15.35;;;6.25;;
56122;SDS011;42426;46.104;19.656;2023-09-19T00:28:27;10.00;;;6.10;;
56122;SDS011;42426;46.104;19.656;2023-09-19T00:30:52;13.85;;;6.93;;
56122;SDS011;42426;46.104;19.656;2023-09-19T00:33:22;11.15;;;5.95;;
56122;SDS011;42426;46.104;19.656;2023-09-19T00:35:50;11.70;;;6.78;;
56122;SDS011;42426;46.104;19.656;2023-09-19T00:38:17;13.52;;;6.88;;
56122;SDS011;42426;46.104;19.656;2023-09-19T00:40:45;8.25;;;6.50;;
56122;SDS011;42426;46.104;19.656;2023-09-19T00:43:11;7.47;;;5.55;;
56122;SDS011;42426;46.104;19.656;2023-09-19T00:45:37;9.02;;;6.65;;
56122;SDS011;42426;46.104;19.656;2023-09-19T00:48:04;10.23;;;6.50;;
56122;SDS011;42426;46.104;19.656;2023-09-19T00:50:34;9.88;;;6.55;;
56122;SDS011;42426;46.104;19.656;2023-09-19T00:53:00;8.48;;;6.03;;
56122;SDS011;42426;46.104;19.656;2023-09-19T00:55:38;11.02;;;6.22;;
56122;SDS011;42426;46.104;19.656;2023-09-19T00:58:06;14.02;;;6.47;;
56122;SDS011;42426;46.104;19.656;2023-09-19T01:00:33;10.40;;;6.43;;
56122;SDS011;42426;46.104;19.656;2023-09-19T01:02:59;13.48;;;7.93;;
56122;SDS011;42426;46.104;19.656;2023-09-19T01:05:29;7.93;;;6.65;;
56122;SDS011;42426;46.104;19.656;2023-09-19T01:07:55;9.00;;;6.78;;
56122;SDS011;42426;46.104;19.656;2023-09-19T01:10:21;11.73;;;6.78;;
56122;SDS011;42426;46.104;19.656;2023-09-19T01:13:09;16.30;;;6.97;;
56122;SDS011;42426;46.104;19.656;2023-09-19T01:21:39;9.00;;;6.60;;
56122;SDS011;42426;46.104;19.656;2023-09-19T01:30:26;8.75;;;6.35;;
56122;SDS011;42426;46.104;19.656;2023-09-19T01:32:56;8.73;;;6.35;;
56122;SDS011;42426;46.104;19.656;2023-09-19T01:35:22;12.40;;;7.43;;
56122;SDS011;42426;46.104;19.656;2023-09-19T01:37:48;7.80;;;6.53;;
56122;SDS011;42426;46.104;19.656;2023-09-19T01:40:14;10.23;;;6.07;;
56122;SDS011;42426;46.104;19.656;2023-09-19T01:45:30;9.88;;;6.88;;
56122;SDS011;42426;46.104;19.656;2023-09-19T01:51:13;11.63;;;6.95;;
56122;SDS011;42426;46.104;19.656;2023-09-19T01:56:40;15.40;;;7.05;;
56122;SDS011;42426;46.104;19.656;2023-09-19T01:59:16;9.65;;;6.38;;
56122;SDS011;42426;46.104;19.656;2023-09-19T02:01:46;10.57;;;6.70;;
56122;SDS011;42426;46.104;19.656;2023-09-19T02:04:14;8.63;;;6.13;;
56122;SDS011;42426;46.104;19.656;2023-09-19T02:06:41;10.50;;;6.72;;
56122;SDS011;42426;46.104;19.656;2023-09-19T02:09:07;12.20;;;6.65;;
56122;SDS011;42426;46.104;19.656;2023-09-19T02:11:34;10.68;;;6.95;;
56122;SDS011;42426;46.104;19.656;2023-09-19T02:14:00;8.45;;;5.95;;
56122;SDS011;42426;46.104;19.656;2023-09-19T02:16:27;10.57;;;7.10;;
56122;SDS011;42426;46.104;19.656;2023-09-19T02:18:54;10.65;;;6.28;;
56122;SDS011;42426;46.104;19.656;2023-09-19T02:21:19;8.73;;;6.78;;
56122;SDS011;42426;46.104;19.656;2023-09-19T02:23:47;8.93;;;6.55;;
56122;SDS011;42426;46.104;19.656;2023-09-19T02:26:13;12.45;;;6.80;;
56122;SDS011;42426;46.104;19.656;2023-09-19T02:28:39;14.00;;;7.25;;
56122;SDS011;42426;46.104;19.656;2023-09-19T02:31:05;9.25;;;6.00;;
56122;SDS011;42426;46.104;19.656;2023-09-19T02:33:30;8.93;;;5.85;;
56122;SDS011;42426;46.104;19.656;2023-09-19T02:35:59;7.25;;;5.95;;
56122;SDS011;42426;46.104;19.656;2023-09-19T02:38:25;13.00;;;6.05;;
56122;SDS011;42426;46.104;19.656;2023-09-19T02:40:52;10.75;;;5.70;;
56122;SDS011;42426;46.104;19.656;2023-09-19T02:43:20;7.68;;;5.78;;
56122;SDS011;42426;46.104;19.656;2023-09-19T02:45:46;7.88;;;5.53;;
56122;SDS011;42426;46.104;19.656;2023-09-19T02:48:14;8.77;;;5.60;;
56122;SDS011;42426;46.104;19.656;2023-09-19T02:50:41;7.25;;;5.50;;
56122;SDS011;42426;46.104;19.656;2023-09-19T02:53:07;10.02;;;5.88;;
56122;SDS011;42426;46.104;19.656;2023-09-19T02:55:33;12.55;;;5.97;;
56122;SDS011;42426;46.104;19.656;2023-09-19T02:57:59;12.35;;;6.25;;
56122;SDS011;42426;46.104;19.656;2023-09-19T03:00:26;8.80;;;5.72;;
56122;SDS011;42426;46.104;19.656;2023-09-19T03:02:53;9.00;;;5.55;;
56122;SDS011;42426;46.104;19.656;2023-09-19T03:05:20;6.70;;;5.78;;
56122;SDS011;42426;46.104;19.656;2023-09-19T03:07:48;7.15;;;5.53;;
56122;SDS011;42426;46.104;19.656;2023-09-19T03:10:18;6.82;;;5.47;;
56122;SDS011;42426;46.104;19.656;2023-09-19T03:12:45;7.05;;;5.88;;
56122;SDS011;42426;46.104;19.656;2023-09-19T03:15:11;7.10;;;5.35;;
56122;SDS011;42426;46.104;19.656;2023-09-19T03:17:42;8.93;;;5.47;;
56122;SDS011;42426;46.104;19.656;2023-09-19T03:20:09;9.93;;;5.70;;
56122;SDS011;42426;46.104;19.656;2023-09-19T03:22:38;12.07;;;5.55;;
56122;SDS011;42426;46.104;19.656;2023-09-19T03:25:07;8.27;;;5.90;;
56122;SDS011;42426;46.104;19.656;2023-09-19T03:27:36;8.15;;;5.93;;
56122;SDS011;42426;46.104;19.656;2023-09-19T03:30:02;10.52;;;6.18;;
56122;SDS011;42426;46.104;19.656;2023-09-19T03:32:33;10.23;;;6.32;;
56122;SDS011;42426;46.104;19.656;2023-09-19T03:35:02;6.43;;;5.55;;
56122;SDS011;42426;46.104;19.656;2023-09-19T03:37:30;10.27;;;6.40;;
56122;SDS011;42426;46.104;19.656;2023-09-19T03:39:57;10.75;;;6.43;;
56122;SDS011;42426;46.104;19.656;2023-09-19T03:42:23;8.40;;;5.90;;
56122;SDS011;42426;46.104;19.656;2023-09-19T03:44:51;16.25;;;6.32;;
56122;SDS011;42426;46.104;19.656;2023-09-19T03:47:17;11.75;;;6.40;;
56122;SDS011;42426;46.104;19.656;2023-09-19T03:49:46;8.82;;;5.82;;
56122;SDS011;42426;46.104;19.656;2023-09-19T03:52:12;7.20;;;5.47;;
56122;SDS011;42426;46.104;19.656;2023-09-19T03:54:37;7.90;;;5.55;;
56122;SDS011;42426;46.104;19.656;2023-09-19T03:57:06;11.88;;;6.97;;
56122;SDS011;42426;46.104;19.656;2023-09-19T03:59:32;6.63;;;5.85;;
56122;SDS011;42426;46.104;19.656;2023-09-19T04:01:57;10.65;;;6.35;;
56122;SDS011;42426;46.104;19.656;2023-09-19T04:04:24;7.75;;;5.55;;
56122;SDS011;42426;46.104;19.656;2023-09-19T04:06:53;9.07;;;5.80;;
56122;SDS011;42426;46.104;19.656;2023-09-19T04:09:19;8.13;;;6.43;;
56122;SDS011;42426;46.104;19.656;2023-09-19T04:11:44;10.10;;;5.78;;
56122;SDS011;42426;46.104;19.656;2023-09-19T04:14:10;11.48;;;5.85;;
56122;SDS011;42426;46.104;19.656;2023-09-19T04:16:36;9.73;;;7.10;;
56122;SDS011;42426;46.104;19.656;2023-09-19T04:19:04;10.27;;;7.10;;
56122;SDS011;42426;46.104;19.656;2023-09-19T04:21:30;10.43;;;7.38;;
56122;SDS011;42426;46.104;19.656;2023-09-19T04:23:56;9.90;;;7.03;;
56122;SDS011;42426;46.104;19.656;2023-09-19T04:26:21;13.60;;;7.47;;
56122;SDS011;42426;46.104;19.656;2023-09-19T04:28:47;12.38;;;6.80;;
56122;SDS011;42426;46.104;19.656;2023-09-19T04:31:13;13.32;;;7.22;;
56122;SDS011;42426;46.104;19.656;2023-09-19T04:33:39;12.65;;;7.95;;
56122;SDS011;42426;46.104;19.656;2023-09-19T04:36:04;10.95;;;7.28;;
56122;SDS011;42426;46.104;19.656;2023-09-19T04:38:32;8.65;;;7.72;;
56122;SDS011;42426;46.104;19.656;2023-09-19T04:40:58;11.63;;;6.82;;
56122;SDS011;42426;46.104;19.656;2023-09-19T04:43:24;16.95;;;7.80;;
56122;SDS011;42426;46.104;19.656;2023-09-19T04:45:50;11.23;;;7.18;;
56122;SDS011;42426;46.104;19.656;2023-09-19T04:48:20;12.18;;;6.82;;
56122;SDS011;42426;46.104;19.656;2023-09-19T04:50:49;10.20;;;7.00;;
56122;SDS011;42426;46.104;19.656;2023-09-19T04:53:14;12.30;;;7.43;;
56122;SDS011;42426;46.104;19.656;2023-09-19T04:55:40;11.80;;;6.70;;
56122;SDS011;42426;46.104;19.656;2023-09-19T04:58:06;11.27;;;6.75;;
56122;SDS011;42426;46.104;19.656;2023-09-19T05:00:31;12.70;;;7.22;;
56122;SDS011;42426;46.104;19.656;2023-09-19T05:03:00;11.02;;;6.00;;
56122;SDS011;42426;46.104;19.656;2023-09-19T05:05:26;9.63;;;6.20;;
56122;SDS011;42426;46.104;19.656;2023-09-19T05:07:52;7.93;;;6.97;;
56122;SDS011;42426;46.104;19.656;2023-09-19T05:10:19;10.70;;;6.55;;
56122;SDS011;42426;46.104;19.656;2023-09-19T05:12:45;11.20;;;6.45;;
56122;SDS011;42426;46.104;19.656;2023-09-19T05:15:13;9.80;;;6.40;;
56122;SDS011;42426;46.104;19.656;2023-09-19T05:17:48;8.50;;;6.15;;
56122;SDS011;42426;46.104;19.656;2023-09-19T05:20:19;15.13;;;7.10;;
56122;SDS011;42426;46.104;19.656;2023-09-19T05:23:01;12.13;;;6.35;;
56122;SDS011;42426;46.104;19.656;2023-09-19T05:25:31;16.45;;;6.90;;
56122;SDS011;42426;46.104;19.656;2023-09-19T05:27:57;9.05;;;6.15;;
56122;SDS011;42426;46.104;19.656;2023-09-19T05:30:25;12.35;;;7.07;;
56122;SDS011;42426;46.104;19.656;2023-09-19T05:32:52;15.05;;;7.32;;
56122;SDS011;42426;46.104;19.656;2023-09-19T05:35:19;12.23;;;6.95;;
56122;SDS011;42426;46.104;19.656;2023-09-19T05:37:46;10.60;;;7.38;;
56122;SDS011;42426;46.104;19.656;2023-09-19T05:40:16;9.82;;;7.03;;
56122;SDS011;42426;46.104;19.656;2023-09-19T05:42:42;13.55;;;6.63;;
56122;SDS011;42426;46.104;19.656;2023-09-19T05:45:09;14.35;;;8.57;;
56122;SDS011;42426;46.104;19.656;2023-09-19T05:47:41;10.68;;;7.22;;
56122;SDS011;42426;46.104;19.656;2023-09-19T05:50:08;15.88;;;8.43;;
56122;SDS011;42426;46.104;19.656;2023-09-19T05:52:37;10.95;;;7.00;;
56122;SDS011;42426;46.104;19.656;2023-09-19T05:55:07;9.40;;;7.30;;
56122;SDS011;42426;46.104;19.656;2023-09-19T05:57:36;12.15;;;7.38;;
56122;SDS011;42426;46.104;19.656;2023-09-19T06:00:04;12.02;;;7.50;;
56122;SDS011;42426;46.104;19.656;2023-09-19T06:02:36;12.75;;;7.45;;
56122;SDS011;42426;46.104;19.656;2023-09-19T06:05:04;11.07;;;7.15;;
56122;SDS011;42426;46.104;19.656;2023-09-19T06:07:31;13.25;;;7.47;;
56122;SDS011;42426;46.104;19.656;2023-09-19T06:10:02;15.98;;;7.88;;
56122;SDS011;42426;46.104;19.656;2023-09-19T06:12:31;13.68;;;6.78;;
56122;SDS011;42426;46.104;19.656;2023-09-19T06:14:58;15.15;;;7.30;;
56122;SDS011;42426;46.104;19.656;2023-09-19T06:17:24;10.38;;;6.85;;
56122;SDS011;42426;46.104;19.656;2023-09-19T06:19:52;11.68;;;7.20;;
56122;SDS011;42426;46.104;19.656;2023-09-19T06:22:17;9.32;;;6.72;;
56122;SDS011;42426;46.104;19.656;2023-09-19T06:24:44;13.10;;;7.70;;
56122;SDS011;42426;46.104;19.656;2023-09-19T06:27:12;10.32;;;7.35;;
56122;SDS011;42426;46.104;19.656;2023-09-19T06:29:38;11.85;;;7.65;;
56122;SDS011;42426;46.104;19.656;2023-09-19T06:32:10;13.95;;;8.10;;
56122;SDS011;42426;46.104;19.656;2023-09-19T06:34:36;9.75;;;7.80;;
56122;SDS011;42426;46.104;19.656;2023-09-19T06:37:08;11.57;;;8.05;;
56122;SDS011;42426;46.104;19.656;2023-09-19T06:39:34;13.32;;;8.48;;
56122;SDS011;42426;46.104;19.656;2023-09-19T06:42:00;14.02;;;8.65;;
56122;SDS011;42426;46.104;19.656;2023-09-19T06:44:26;13.30;;;8.13;;
56122;SDS011;42426;46.104;19.656;2023-09-19T06:46:54;12.95;;;8.20;;
56122;SDS011;42426;46.104;19.656;2023-09-19T06:49:20;18.70;;;8.55;;
56122;SDS011;42426;46.104;19.656;2023-09-19T06:51:46;10.32;;;8.25;;
56122;SDS011;42426;46.104;19.656;2023-09-19T06:54:11;10.68;;;7.40;;
56122;SDS011;42426;46.104;19.656;2023-09-19T06:56:37;12.25;;;7.90;;
56122;SDS011;42426;46.104;19.656;2023-09-19T06:59:03;12.55;;;8.23;;
56122;SDS011;42426;46.104;19.656;2023-09-19T07:01:31;11.63;;;7.95;;
56122;SDS011;42426;46.104;19.656;2023-09-19T07:03:57;16.50;;;8.88;;
56122;SDS011;42426;46.104;19.656;2023-09-19T07:06:22;11.57;;;8.23;;
56122;SDS011;42426;46.104;19.656;2023-09-19T07:08:49;13.60;;;8.57;;
56122;SDS011;42426;46.104;19.656;2023-09-19T07:11:15;14.95;;;8.65;;
56122;SDS011;42426;46.104;19.656;2023-09-19T07:13:41;14.40;;;9.07;;
56122;SDS011;42426;46.104;19.656;2023-09-19T07:16:08;17.25;;;9.13;;
56122;SDS011;42426;46.104;19.656;2023-09-19T07:18:35;18.08;;;9.80;;
56122;SDS011;42426;46.104;19.656;2023-09-19T07:21:01;14.25;;;7.95;;
56122;SDS011;42426;46.104;19.656;2023-09-19T07:23:30;12.63;;;8.50;;
56122;SDS011;42426;46.104;19.656;2023-09-19T07:26:02;19.88;;;8.63;;
56122;SDS011;42426;46.104;19.656;2023-09-19T07:28:30;18.13;;;8.68;;
56122;SDS011;42426;46.104;19.656;2023-09-19T07:30:56;10.27;;;8.13;;
56122;SDS011;42426;46.104;19.656;2023-09-19T07:33:22;13.98;;;8.77;;
56122;SDS011;42426;46.104;19.656;2023-09-19T07:35:51;16.65;;;7.80;;
56122;SDS011;42426;46.104;19.656;2023-09-19T07:38:17;11.35;;;7.78;;
56122;SDS011;42426;46.104;19.656;2023-09-19T07:40:43;18.02;;;8.52;;
56122;SDS011;42426;46.104;19.656;2023-09-19T07:43:09;26.75;;;9.80;;
56122;SDS011;42426;46.104;19.656;2023-09-19T07:45:35;14.05;;;7.80;;
56122;SDS011;42426;46.104;19.656;2023-09-19T07:48:01;12.73;;;8.55;;
56122;SDS011;42426;46.104;19.656;2023-09-19T07:50:29;16.70;;;8.60;;
56122;SDS011;42426;46.104;19.656;2023-09-19T07:52:55;14.93;;;8.52;;
56122;SDS011;42426;46.104;19.656;2023-09-19T07:55:21;10.13;;;7.78;;
56122;SDS011;42426;46.104;19.656;2023-09-19T07:57:54;11.25;;;7.97;;
56122;SDS011;42426;46.104;19.656;2023-09-19T08:00:20;14.15;;;9.45;;
56122;SDS011;42426;46.104;19.656;2023-09-19T08:02:46;14.88;;;9.65;;
56122;SDS011;42426;46.104;19.656;2023-09-19T08:05:12;13.88;;;8.00;;
56122;SDS011;42426;46.104;19.656;2023-09-19T08:07:42;12.38;;;8.13;;
56122;SDS011;42426;46.104;19.656;2023-09-19T08:10:10;15.57;;;9.65;;
56122;SDS011;42426;46.104;19.656;2023-09-19T08:12:40;15.13;;;9.13;;
56122;SDS011;42426;46.104;19.656;2023-09-19T08:15:20;23.85;;;9.88;;
56122;SDS011;42426;46.104;19.656;2023-09-19T08:17:46;28.73;;;10.07;;
56122;SDS011;42426;46.104;19.656;2023-09-19T08:20:13;26.38;;;10.98;;
56122;SDS011;42426;46.104;19.656;2023-09-19T08:22:52;18.10;;;10.30;;
56122;SDS011;42426;46.104;19.656;2023-09-19T08:25:21;19.48;;;9.75;;
56122;SDS011;42426;46.104;19.656;2023-09-19T08:27:48;19.20;;;9.10;;
56122;SDS011;42426;46.104;19.656;2023-09-19T08:30:16;19.02;;;9.85;;
56122;SDS011;42426;46.104;19.656;2023-09-19T08:32:43;20.20;;;9.85;;
56122;SDS011;42426;46.104;19.656;2023-09-19T08:35:10;17.85;;;11.02;;
56122;SDS011;42426;46.104;19.656;2023-09-19T08:37:36;18.35;;;10.57;;
56122;SDS011;42426;46.104;19.656;2023-09-19T08:40:02;15.70;;;10.43;;
56122;SDS011;42426;46.104;19.656;2023-09-19T08:43:04;18.58;;;12.05;;
56122;SDS011;42426;46.104;19.656;2023-09-19T08:45:23;26.23;;;13.10;;
56122;SDS011;42426;46.104;19.656;2023-09-19T08:50:33;24.45;;;13.02;;
56122;SDS011;42426;46.104;19.656;2023-09-19T08:53:01;18.25;;;10.30;;
56122;SDS011;42426;46.104;19.656;2023-09-19T08:55:30;16.65;;;8.05;;
56122;SDS011;42426;46.104;19.656;2023-09-19T08:58:03;18.73;;;6.78;;
56122;SDS011;42426;46.104;19.656;2023-09-19T09:02:58;10.88;;;5.05;;
56122;SDS011;42426;46.104;19.656;2023-09-19T09:05:25;11.98;;;3.33;;
56122;SDS011;42426;46.104;19.656;2023-09-19T09:07:53;8.10;;;3.97;;
56122;SDS011;42426;46.104;19.656;2023-09-19T09:10:21;8.07;;;3.15;;
56122;SDS011;42426;46.104;19.656;2023-09-19T09:12:51;13.80;;;3.38;;
56122;SDS011;42426;46.104;19.656;2023-09-19T09:15:19;8.73;;;3.10;;
56122;SDS011;42426;46.104;19.656;2023-09-19T09:17:48;5.25;;;2.80;;
56122;SDS011;42426;46.104;19.656;2023-09-19T09:20:20;4.63;;;2.38;;
56122;SDS011;42426;46.104;19.656;2023-09-19T09:22:53;7.13;;;2.58;;
56122;SDS011;42426;46.104;19.656;2023-09-19T09:25:21;14.35;;;3.90;;
56122;SDS011;42426;46.104;19.656;2023-09-19T09:28:00;8.93;;;2.58;;
56122;SDS011;42426;46.104;19.656;2023-09-19T09:30:33;7.65;;;2.70;;
56122;SDS011;42426;46.104;19.656;2023-09-19T09:33:09;4.68;;;2.50;;
56122;SDS011;42426;46.104;19.656;2023-09-19T09:35:37;5.15;;;2.35;;
56122;SDS011;42426;46.104;19.656;2023-09-19T09:38:12;3.63;;;2.40;;
56122;SDS011;42426;46.104;19.656;2023-09-19T09:40:51;5.78;;;2.55;;
56122;SDS011;42426;46.104;19.656;2023-09-19T09:43:46;4.57;;;2.63;;
56122;SDS011;42426;46.104;19.656;2023-09-19T09:46:18;7.07;;;3.03;;
56122;SDS011;42426;46.104;19.656;2023-09-19T09:51:41;8.13;;;2.63;;
56122;SDS011;42426;46.104;19.656;2023-09-19T09:54:22;12.95;;;3.15;;
56122;SDS011;42426;46.104;19.656;2023-09-19T09:59:20;7.60;;;2.50;;
56122;SDS011;42426;46.104;19.656;2023-09-19T10:01:49;3.50;;;2.25;;
56122;SDS011;42426;46.104;19.656;2023-09-19T10:04:28;2.88;;;2.58;;
56122;SDS011;42426;46.104;19.656;2023-09-19T10:06:56;6.85;;;2.35;;
56122;SDS011;42426;46.104;19.656;2023-09-19T10:09:22;16.50;;;3.53;;
56122;SDS011;42426;46.104;19.656;2023-09-19T10:12:08;11.50;;;3.22;;
56122;SDS011;42426;46.104;19.656;2023-09-19T10:14:37;7.40;;;2.53;;
56122;SDS011;42426;46.104;19.656;2023-09-19T10:17:08;6.05;;;2.75;;
56122;SDS011;42426;46.104;19.656;2023-09-19T10:22:22;3.67;;;2.10;;
56122;SDS011;42426;46.104;19.656;2023-09-19T10:24:49;5.15;;;2.40;;
56122;SDS011;42426;46.104;19.656;2023-09-19T10:27:17;3.92;;;2.10;;
56122;SDS011;42426;46.104;19.656;2023-09-19T10:29:45;3.63;;;2.40;;
56122;SDS011;42426;46.104;19.656;2023-09-19T10:32:16;3.38;;;2.20;;
56122;SDS011;42426;46.104;19.656;2023-09-19T10:34:45;3.13;;;2.35;;
56122;SDS011;42426;46.104;19.656;2023-09-19T10:37:13;3.80;;;2.40;;
56122;SDS011;42426;46.104;19.656;2023-09-19T10:39:40;6.18;;;2.65;;
56122;SDS011;42426;46.104;19.656;2023-09-19T10:42:10;3.05;;;2.35;;
56122;SDS011;42426;46.104;19.656;2023-09-19T10:44:42;6.97;;;2.72;;
56122;SDS011;42426;46.104;19.656;2023-09-19T10:47:10;5.93;;;2.63;;
56122;SDS011;42426;46.104;19.656;2023-09-19T10:49:42;6.20;;;2.70;;
56122;SDS011;42426;46.104;19.656;2023-09-19T10:52:11;4.25;;;2.65;;
56122;SDS011;42426;46.104;19.656;2023-09-19T10:54:45;4.07;;;2.60;;
56122;SDS011;42426;46.104;19.656;2023-09-19T10:57:20;3.67;;;2.60;;
56122;SDS011;42426;46.104;19.656;2023-09-19T11:00:09;7.90;;;3.85;;
56122;SDS011;42426;46.104;19.656;2023-09-19T11:16:39;3.28;;;2.53;;
56122;SDS011;42426;46.104;19.656;2023-09-19T11:19:08;6.13;;;2.95;;
56122;SDS011;42426;46.104;19.656;2023-09-19T11:26:47;3.45;;;2.90;;
56122;SDS011;42426;46.104;19.656;2023-09-19T11:29:29;4.85;;;3.10;;
56122;SDS011;42426;46.104;19.656;2023-09-19T11:31:59;4.75;;;2.70;;
56122;SDS011;42426;46.104;19.656;2023-09-19T11:34:41;6.20;;;2.60;;
56122;SDS011;42426;46.104;19.656;2023-09-19T11:39:37;3.72;;;2.40;;
56122;SDS011;42426;46.104;19.656;2023-09-19T11:47:59;7.43;;;2.78;;
56122;SDS011;42426;46.104;19.656;2023-09-19T11:50:26;3.35;;;2.58;;
56122;SDS011;42426;46.104;19.656;2023-09-19T11:52:53;4.32;;;2.20;;
56122;SDS011;42426;46.104;19.656;2023-09-19T11:55:20;5.55;;;2.40;;
56122;SDS011;42426;46.104;19.656;2023-09-19T11:57:48;3.30;;;2.47;;
56122;SDS011;42426;46.104;19.656;2023-09-19T12:00:18;3.55;;;2.05;;
56122;SDS011;42426;46.104;19.656;2023-09-19T12:02:46;4.05;;;2.20;;
56122;SDS011;42426;46.104;19.656;2023-09-19T12:05:13;3.30;;;2.47;;
56122;SDS011;42426;46.104;19.656;2023-09-19T12:07:43;3.42;;;2.38;;
56122;SDS011;42426;46.104;19.656;2023-09-19T12:12:46;3.88;;;2.53;;
56122;SDS011;42426;46.104;19.656;2023-09-19T12:15:25;3.30;;;2.45;;
56122;SDS011;42426;46.104;19.656;2023-09-19T12:17:59;6.60;;;2.47;;
56122;SDS011;42426;46.104;19.656;2023-09-19T12:20:41;3.03;;;2.35;;
56122;SDS011;42426;46.104;19.656;2023-09-19T12:23:14;3.65;;;2.38;;
56122;SDS011;42426;46.104;19.656;2023-09-19T12:25:41;4.55;;;2.60;;
56122;SDS011;42426;46.104;19.656;2023-09-19T12:28:11;6.38;;;3.03;;
56122;SDS011;42426;46.104;19.656;2023-09-19T12:30:37;4.47;;;2.70;;
56122;SDS011;42426;46.104;19.656;2023-09-19T12:33:16;3.05;;;2.25;;
56122;SDS011;42426;46.104;19.656;2023-09-19T12:35:44;5.05;;;2.30;;
56122;SDS011;42426;46.104;19.656;2023-09-19T12:38:21;2.83;;;2.45;;
56122;SDS011;42426;46.104;19.656;2023-09-19T12:40:48;5.22;;;2.45;;
56122;SDS011;42426;46.104;19.656;2023-09-19T12:43:16;2.33;;;2.13;;
56122;SDS011;42426;46.104;19.656;2023-09-19T12:45:42;7.57;;;2.53;;
56122;SDS011;42426;46.104;19.656;2023-09-19T12:51:04;7.35;;;2.85;;
56122;SDS011;42426;46.104;19.656;2023-09-19T12:53:32;4.30;;;2.78;;
56122;SDS011;42426;46.104;19.656;2023-09-19T12:56:01;7.60;;;2.58;;
56122;SDS011;42426;46.104;19.656;2023-09-19T12:58:30;6.68;;;2.40;;
56122;SDS011;42426;46.104;19.656;2023-09-19T13:00:57;3.88;;;2.65;;
56122;SDS011;42426;46.104;19.656;2023-09-19T13:08:21;4.28;;;2.42;;
56122;SDS011;42426;46.104;19.656;2023-09-19T13:13:35;4.82;;;2.30;;
56122;SDS011;42426;46.104;19.656;2023-09-19T13:16:02;5.20;;;2.78;;
56122;SDS011;42426;46.104;19.656;2023-09-19T13:18:33;4.75;;;2.50;;
56122;SDS011;42426;46.104;19.656;2023-09-19T13:21:08;6.82;;;2.33;;
56122;SDS011;42426;46.104;19.656;2023-09-19T13:23:37;3.15;;;2.33;;
56122;SDS011;42426;46.104;19.656;2023-09-19T13:26:05;3.55;;;2.55;;
56122;SDS011;42426;46.104;19.656;2023-09-19T13:28:31;3.35;;;2.10;;
56122;SDS011;42426;46.104;19.656;2023-09-19T13:30:58;2.83;;;2.10;;
56122;SDS011;42426;46.104;19.656;2023-09-19T13:33:25;2.72;;;2.20;;
56122;SDS011;42426;46.104;19.656;2023-09-19T13:35:51;2.70;;;2.10;;
56122;SDS011;42426;46.104;19.656;2023-09-19T13:38:18;3.35;;;2.25;;
56122;SDS011;42426;46.104;19.656;2023-09-19T13:40:47;5.70;;;2.30;;
56122;SDS011;42426;46.104;19.656;2023-09-19T13:43:13;2.67;;;2.40;;
56122;SDS011;42426;46.104;19.656;2023-09-19T13:45:39;11.48;;;3.63;;
56122;SDS011;42426;46.104;19.656;2023-09-19T13:48:07;3.20;;;2.30;;
56122;SDS011;42426;46.104;19.656;2023-09-19T13:50:37;4.43;;;2.55;;
56122;SDS011;42426;46.104;19.656;2023-09-19T13:53:07;4.97;;;3.35;;
56122;SDS011;42426;46.104;19.656;2023-09-19T13:55:33;7.25;;;2.97;;
56122;SDS011;42426;46.104;19.656;2023-09-19T13:57:59;6.75;;;4.00;;
56122;SDS011;42426;46.104;19.656;2023-09-19T14:00:25;7.38;;;4.38;;
56122;SDS011;42426;46.104;19.656;2023-09-19T14:02:52;5.30;;;3.58;;
56122;SDS011;42426;46.104;19.656;2023-09-19T14:05:18;10.60;;;3.85;;
56122;SDS011;42426;46.104;19.656;2023-09-19T14:07:46;11.13;;;4.63;;
56122;SDS011;42426;46.104;19.656;2023-09-19T14:10:12;8.25;;;4.43;;
56122;SDS011;42426;46.104;19.656;2023-09-19T14:12:39;11.38;;;4.57;;
56122;SDS011;42426;46.104;19.656;2023-09-19T14:15:09;28.38;;;11.52;;
56122;SDS011;42426;46.104;19.656;2023-09-19T14:17:37;7.40;;;4.20;;
56122;SDS011;42426;46.104;19.656;2023-09-19T14:20:03;3.50;;;2.50;;
56122;SDS011;42426;46.104;19.656;2023-09-19T14:22:31;5.25;;;3.00;;
56122;SDS011;42426;46.104;19.656;2023-09-19T14:24:58;10.60;;;3.40;;
56122;SDS011;42426;46.104;19.656;2023-09-19T14:27:25;5.97;;;2.67;;
56122;SDS011;42426;46.104;19.656;2023-09-19T14:29:52;6.55;;;2.80;;
56122;SDS011;42426;46.104;19.656;2023-09-19T14:32:18;3.67;;;2.85;;
56122;SDS011;42426;46.104;19.656;2023-09-19T14:34:44;4.00;;;2.80;;
56122;SDS011;42426;46.104;19.656;2023-09-19T14:37:10;8.00;;;3.17;;
56122;SDS011;42426;46.104;19.656;2023-09-19T14:39:36;4.03;;;2.72;;
56122;SDS011;42426;46.104;19.656;2023-09-19T14:42:08;5.55;;;2.75;;
56122;SDS011;42426;46.104;19.656;2023-09-19T14:44:35;3.08;;;2.50;;
56122;SDS011;42426;46.104;19.656;2023-09-19T14:47:02;2.47;;;2.13;;
56122;SDS011;42426;46.104;19.656;2023-09-19T14:49:35;4.57;;;3.30;;
56122;SDS011;42426;46.104;19.656;2023-09-19T14:52:03;3.00;;;2.70;;
56122;SDS011;42426;46.104;19.656;2023-09-19T14:54:30;5.97;;;3.53;;
56122;SDS011;42426;46.104;19.656;2023-09-19T14:56:56;5.03;;;2.88;;
56122;SDS011;42426;46.104;19.656;2023-09-19T14:59:32;5.43;;;2.90;;
56122;SDS011;42426;46.104;19.656;2023-09-19T15:02:02;4.40;;;2.58;;
56122;SDS011;42426;46.104;19.656;2023-09-19T15:04:28;4.10;;;2.47;;
56122;SDS011;42426;46.104;19.656;2023-09-19T15:06:55;3.42;;;2.60;;
56122;SDS011;42426;46.104;19.656;2023-09-19T15:09:21;3.03;;;2.60;;
56122;SDS011;42426;46.104;19.656;2023-09-19T15:11:54;4.35;;;2.55;;
56122;SDS011;42426;46.104;19.656;2023-09-19T15:14:21;5.65;;;3.33;;
56122;SDS011;42426;46.104;19.656;2023-09-19T15:16:47;7.03;;;2.83;;
56122;SDS011;42426;46.104;19.656;2023-09-19T15:19:14;4.10;;;2.97;;
56122;SDS011;42426;46.104;19.656;2023-09-19T15:21:40;4.30;;;2.60;;
56122;SDS011;42426;46.104;19.656;2023-09-19T15:24:06;4.90;;;2.72;;
56122;SDS011;42426;46.104;19.656;2023-09-19T15:26:36;6.53;;;2.83;;
56122;SDS011;42426;46.104;19.656;2023-09-19T15:29:05;3.15;;;2.60;;
56122;SDS011;42426;46.104;19.656;2023-09-19T15:31:31;3.80;;;2.90;;
56122;SDS011;42426;46.104;19.656;2023-09-19T15:33:58;5.10;;;3.13;;
56122;SDS011;42426;46.104;19.656;2023-09-19T15:36:24;3.05;;;2.47;;
56122;SDS011;42426;46.104;19.656;2023-09-19T15:41:18;8.23;;;3.40;;
56122;SDS011;42426;46.104;19.656;2023-09-19T15:43:44;5.30;;;3.88;;
56122;SDS011;42426;46.104;19.656;2023-09-19T15:46:10;5.90;;;3.80;;
56122;SDS011;42426;46.104;19.656;2023-09-19T15:48:37;3.85;;;3.17;;
56122;SDS011;42426;46.104;19.656;2023-09-19T15:51:03;6.05;;;3.95;;
56122;SDS011;42426;46.104;19.656;2023-09-19T15:53:51;3.45;;;2.78;;